Airfield :
LOGIN :

Register | Disclaimer

   EN    FR    IT 

 










Legend :    VFR   Marginal VFR   IFR   Intensive IFR   Very Intensive IFR
Visi :
Ceiling :
>= 8 km
>= 3000ft
5 to 8 km
1000 to 3000 ft
1500m to 5 km
500 to 1000 ft
800 to 1500m
200 to 500 ft
< 800m
< 200 ft
Symbols :   Thunderstorms  Fog  Heavy snow  Heavy precipitations  Wind > 20 kt
SIGMETs :     Misc.  Thunderstorms  Icing  Turbulence  Mountain Waves  Volcanic Ashes







- Airport Elevation : 268 ft
- IATA code : BFS
- Download approach charts


EGAA - Belfast Aldergrove

CURRENT METAR :
  • 211120Z 22008KT 190V300 9999 SCT009 BKN014 12/10 Q1030

EXPIRED METARs :
  • 211050Z 22008KT 180V280 9999 BKN010 12/10 Q1030
  • 211020Z 23010KT 200V280 9999 BKN010 12/10 Q1030
  • 210950Z 23010KT 9999 BKN010 11/09 Q1030
  • 210920Z 22008KT 190V260 9999 BKN009 11/09 Q1030
  • 210850Z 22009KT 190V270 9999 BKN008 11/09 Q1030

TAF TAF EGAA
Valid from the 21 at 12:00 until the 22 at 12:00 UTC


211055Z 2112/2212 20010KT 9999 FEW014 BKN025
PROB40
TEMPO 2112/2114 BKN014
PROB30
TEMPO 2118/2122 BKN014
BECMG 2203/2206 20015G27KT
PROB30
TEMPO 2205/2209 7000 -RADZ
BECMG 2209/2212 7000 -RA BKN012
PROB30
TEMPO 2210/2212 4000 RADZ BKN008
No reported NOTAMs for that airfield.



MET'MAP, your aeronautical weather chart ! - Copyright ORBIFLY December 2007 - Disclaimer

ORBIFLY MET'MAP TEAM :

Programming & Development : Alexandra Zaïnal
Concept & Development : Baudouin d'Aumeries
Co-Development & Prog : Marc-Olivier Méhu
Technical & hardware support : Manuel Goepfert

Contact : metmap@orbifly.com




SOURCES & CREDITS :

   NOAA